Peace River Airport
CYPE : now visible

Airfield :











YOU CAN JOIN US ON...

 
LOGIN :

Register | Disclaimer

   EN    FR    IT 

 









Legend :    VFR   Marginal VFR   IFR   Intensive IFR   Very Intensive IFR
Visi :
Ceiling :
>= 8 km
>= 3000ft
5 to 8 km
1000 to 3000 ft
1500m to 5 km
500 to 1000 ft
800 to 1500m
200 to 500 ft
< 800m
< 200 ft
Symbols :   Thunderstorms  Fog  Heavy snow  Heavy precipitations  Wind > 20 kt






- Airport Elevation : 1873 ft
- IATA code : YPE


CYPE - Peace River

METAR N/A
TAF TAF CYPE
Valid from the 24 at 19:00 until the 25 at 07:00 UTC


241840Z 2419/2507 32006KT P6SM -RA BKN030 OVC060
TEMPO 2419/2502 5SM -RA BR BKN008 BKN020 OVC060
BECMG 2419/2421 36012G22KT
FM250200 34012KT P6SM BKN040 BKN120
TEMPO 2503/2507 P6SM -SHRA VCTS BKN040CB BKN120 RMK NXT FCST BY 250100Z
CZEG FIR / North America



MET'MAP, your aeronautical weather chart ! - Copyright ORBIFLY December 2007 - Disclaimer

ORBIFLY MET'MAP TEAM :

Programming & Development : Alexandra Zaïnal
Original concept : Baudouin d'Aumeries
Technical & hardware support : Manuel Goepfert
Assistance : Marc-Olivier Méhu




SOURCES & CREDITS :

   NOAA       Earth
Advisory